Tuesday, September 18, 2018, 9:40 PM MDT
Back to Local

KSLC, Salt Lake City International Airport

Location: Salt Lake City, UT, United States Lat: 40.783
Local Time: 9:40 PM MDT ( 3:40 GMT) Lon: -111.967
Time Zone: US/Mountain Elev: 4225 ft

Show me the last for .
Show Decoded

2018-09-18 20:54 METAR KSLC 190254Z 14003KT 10SM FEW100 23/M02 A2984 RMK AO2 SLP052 T02281017
                 56005 =
2018-09-18 19:54 METAR KSLC 190154Z 36009KT 10SM FEW100 22/M01 A2984 RMK AO2 SLP056 T02221006 =
2018-09-18 18:54 METAR KSLC 190054Z 35011KT 10SM FEW050 FEW100 27/M01 A2985 RMK AO2 SLP056 FU
                 FEW050 FU DSNT SE T02721006 =
2018-09-18 17:54 METAR KSLC 182354Z 36014KT 10SM FEW050 FEW100 29/M01 A2985 RMK AO2 SLP050 FU
                 FEW050 FU DSNT SE T02941011 10311 20294 56007 =
2018-09-18 16:54 METAR KSLC 182254Z 36013KT 10SM FEW050 FEW100 30/01 A2986 RMK AO2 SLP052 FU
                 FEW050 FU DSNT SE T03000006 =
2018-09-18 15:54 METAR KSLC 182154Z 30011KT 10SM FEW050 31/01 A2986 RMK AO2 SLP051 FU FEW050 FU
                 DSNT SE T03060006 =
2018-09-18 14:54 METAR KSLC 182054Z 31011KT 10SM FEW050 FEW100 31/02 A2988 RMK AO2 SLP054 FU
                 FEW050 FU DSNT SE T03110017 56012 =
2018-09-18 13:54 METAR KSLC 181954Z 30013G19KT 10SM FEW055 FEW095 31/03 A2988 RMK AO2 PK WND
                 15030/1933 SLP060 FU FEW055 FU DSNT NW-N T03060028 =
2018-09-18 12:54 METAR KSLC 181854Z 15016G26KT 10SM FEW040 FEW095 31/03 A2990 RMK AO2 PK WND
                 17027/1829 SLP065 FU FEW040 FU DSNT NW T03060028 =
2018-09-18 11:54 METAR KSLC 181754Z 18019G25KT 10SM FEW090 29/03 A2992 RMK AO2 PK WND 16026/1714
                 SLP072 T02940033 10294 20172 58007 =
2018-09-18 10:54 METAR KSLC 181654Z 17015G24KT 10SM FEW045 FEW090 28/04 A2993 RMK AO2 SLP078 FU
                 FEW045 FU DSNT SE T02780044 =
2018-09-18 09:54 METAR KSLC 181554Z 14010KT 10SM FEW085 26/04 A2993 RMK AO2 SLP081 T02560044 =
2018-09-18 08:54 METAR KSLC 181454Z 12007KT 10SM CLR 22/04 A2994 RMK AO2 SLP087 T02170044 51005 =
2018-09-18 07:54 METAR KSLC 181354Z 12006KT 10SM CLR 19/04 A2994 RMK AO2 SLP086 T01940039 =
2018-09-18 06:54 METAR KSLC 181254Z 11006KT 10SM CLR 17/03 A2993 RMK AO2 SLP084 T01720033 =
2018-09-18 05:54 METAR KSLC 181154Z VRB04KT 10SM FEW120 21/02 A2992 RMK AO2 SLP074 T02110022
                 10233 20194 53003 =
2018-09-18 04:54 METAR KSLC 181054Z 14006KT 10SM CLR 21/03 A2992 RMK AO2 SLP074 T02110033 =
2018-09-18 03:54 METAR KSLC 180954Z 14007G15KT 10SM FEW120 23/03 A2991 RMK AO2 SLP068 T02280033 =
2018-09-18 02:54 METAR KSLC 180854Z VRB03KT 10SM FEW120 23/04 A2991 RMK AO2 SLP070 T02280039
                 53006 =
2018-09-18 01:54 METAR KSLC 180754Z 12007KT 10SM CLR 21/07 A2990 RMK AO2 SLP069 T02110067 =
2018-09-18 00:54 METAR KSLC 180654Z 14008KT 10SM FEW095 21/06 A2990 RMK AO2 SLP070 T02110061
                 403060144 =
2018-09-17 23:54 METAR KSLC 180554Z 16008KT 10SM FEW095 21/07 A2989 RMK AO2 SLP071 T02110067
                 10294 20211 50000 =
2018-09-17 22:54 METAR KSLC 180454Z 12008KT 10SM FEW095 22/07 A2990 RMK AO2 SLP072 T02170067 =
2018-09-17 21:54 METAR KSLC 180354Z 17005KT 10SM FEW095 23/07 A2989 RMK AO2 SLP072 T02330067 =

Support USWX by starting your Amazon purchase here.